createdAt,value
2022-09-21T00:00:05.782Z,101178.13
2022-09-21T00:03:07.499Z,101174.75
2022-09-21T00:06:12.633Z,101178.59
2022-09-21T00:09:14.343Z,101176.44
2022-09-21T00:12:17.078Z,101182.91
2022-09-21T00:15:19.217Z,101181.84
2022-09-21T00:18:20.945Z,101179.88
2022-09-21T00:21:24.387Z,101186.75
2022-09-21T00:24:26.058Z,101189.63
2022-09-21T00:27:30.027Z,101191.25
2022-09-21T00:30:31.758Z,101187.34
2022-09-21T00:33:33.988Z,101187.44
2022-09-21T00:36:36.973Z,101184.59
2022-09-21T00:39:38.714Z,101192.19
2022-09-21T00:42:40.425Z,101196.63
2022-09-21T00:45:42.984Z,101188.78
2022-09-21T00:48:45.981Z,101196.84
2022-09-21T00:51:50.032Z,101189.97
2022-09-21T00:54:54.826Z,101194.66
2022-09-21T00:58:00.346Z,101189.34
2022-09-21T01:01:01.976Z,101196.00
2022-09-21T01:04:03.852Z,101188.66
2022-09-21T01:07:12.246Z,101199.97
2022-09-21T01:10:17.522Z,101195.59
2022-09-21T01:13:30.896Z,101195.13
2022-09-21T01:16:38.783Z,101199.59
2022-09-21T01:20:04.631Z,101202.09
2022-09-21T01:23:31.732Z,101190.63
2022-09-21T01:26:48.667Z,101198.69
2022-09-21T01:29:55.255Z,101197.91
2022-09-21T01:33:04.498Z,101192.19
2022-09-21T01:36:11.991Z,101201.56
2022-09-21T01:39:16.801Z,101194.25
2022-09-21T01:42:20.441Z,101209.22
2022-09-21T01:45:30.332Z,101208.09
2022-09-21T01:48:35.152Z,101203.41
2022-09-21T01:51:43.639Z,101208.25
2022-09-21T01:54:50.117Z,101211.44
2022-09-21T01:57:57.971Z,101201.56
2022-09-21T02:01:01.285Z,101202.09
2022-09-21T02:04:08.796Z,101205.84
2022-09-21T02:07:10.571Z,101206.06
2022-09-21T02:10:18.616Z,101194.50
2022-09-21T02:13:25.241Z,101193.50
2022-09-21T02:16:36.138Z,101192.25
2022-09-21T02:19:46.313Z,101189.63
2022-09-21T02:23:03.342Z,101200.28
2022-09-21T02:26:12.271Z,101196.34
2022-09-21T02:29:20.572Z,101190.22
2022-09-21T02:32:33.878Z,101192.06
2022-09-21T02:35:40.559Z,101196.38
2022-09-21T02:38:49.261Z,101198.97
2022-09-21T02:42:01.863Z,101193.00
2022-09-21T02:45:08.133Z,101190.59
2022-09-21T02:48:15.697Z,101198.06
2022-09-21T02:51:22.035Z,101192.25
2022-09-21T02:54:29.584Z,101190.78
2022-09-21T02:57:31.370Z,101199.56
2022-09-21T03:00:34.353Z,101201.81
2022-09-21T03:03:37.446Z,101194.91
2022-09-21T03:06:39.183Z,101194.31
2022-09-21T03:09:40.789Z,101187.22
2022-09-21T03:13:44.677Z,101197.31
2022-09-21T03:16:46.361Z,101196.38
2022-09-21T03:19:49.370Z,101195.47
2022-09-21T03:22:50.999Z,101199.38
2022-09-21T03:25:52.559Z,101200.88
2022-09-21T03:28:54.722Z,101204.78
2022-09-21T03:31:56.483Z,101201.25
2022-09-21T03:34:59.433Z,101205.88
2022-09-21T03:38:01.788Z,101206.44
2022-09-21T03:41:03.691Z,101216.91
2022-09-21T03:44:05.434Z,101219.69
2022-09-21T03:47:07.216Z,101221.94
2022-09-21T03:50:10.905Z,101220.97
2022-09-21T03:53:12.729Z,101220.81
2022-09-21T03:56:14.337Z,101211.13
2022-09-21T03:59:15.974Z,101211.50
2022-09-21T04:02:17.785Z,101218.75
2022-09-21T04:05:20.996Z,101216.34
2022-09-21T04:08:22.567Z,101212.78
2022-09-21T04:11:24.616Z,101217.63
2022-09-21T04:14:26.298Z,101215.56
2022-09-21T04:17:30.362Z,101218.56
2022-09-21T04:20:33.436Z,101225.09
2022-09-21T04:23:35.650Z,101222.84
2022-09-21T04:26:37.332Z,101227.72
2022-09-21T04:29:39.177Z,101223.78
2022-09-21T04:32:40.890Z,101224.50
2022-09-21T04:35:44.027Z,101224.50
2022-09-21T04:38:46.217Z,101220.56
2022-09-21T04:41:48.151Z,101224.59
2022-09-21T04:44:49.777Z,101230.63
2022-09-21T04:47:51.654Z,101227.84
2022-09-21T04:50:54.798Z,101227.09
2022-09-21T04:53:56.413Z,101231.00
2022-09-21T04:56:58.183Z,101227.06
2022-09-21T05:00:00.169Z,101237.69
2022-09-21T05:03:01.877Z,101242.72
2022-09-21T05:06:05.437Z,101240.31
2022-09-21T05:09:25.838Z,101236.03
2022-09-21T05:12:27.615Z,101249.16
2022-09-21T05:15:29.259Z,101256.66
2022-09-21T05:18:31.053Z,101260.63
2022-09-21T05:21:34.083Z,101259.19
2022-09-21T05:24:35.687Z,101267.38
2022-09-21T05:27:37.450Z,101267.75
2022-09-21T05:30:51.508Z,101268.88
2022-09-21T05:34:10.697Z,101270.19
2022-09-21T05:37:36.575Z,101273.91
2022-09-21T05:40:38.477Z,101280.78
2022-09-21T05:43:40.717Z,101280.25
2022-09-21T05:46:52.685Z,101281.50
2022-09-21T05:50:03.554Z,101283.16
2022-09-21T05:53:19.179Z,101281.88
2022-09-21T05:56:43.205Z,101277.72
2022-09-21T06:00:00.478Z,101280.75
2022-09-21T06:03:21.593Z,101285.03
2022-09-21T06:06:23.195Z,101280.44
2022-09-21T06:09:26.759Z,101284.53
2022-09-21T06:12:28.423Z,101289.97
2022-09-21T06:15:32.161Z,101295.19
2022-09-21T06:18:37.316Z,101292.97
2022-09-21T06:21:38.976Z,101292.22
2022-09-21T06:24:42.004Z,101293.75
2022-09-21T06:27:43.637Z,101300.84
2022-09-21T06:30:51.088Z,101299.88
2022-09-21T06:33:53.160Z,101299.16
2022-09-21T06:36:54.790Z,101296.38
2022-09-21T06:39:57.792Z,101302.81
2022-09-21T06:43:01.139Z,101300.25
2022-09-21T06:46:03.380Z,101306.81
2022-09-21T06:49:05.445Z,101311.66
2022-09-21T06:52:07.411Z,101311.69
2022-09-21T06:55:10.763Z,101309.84
2022-09-21T06:58:14.834Z,101316.22
2022-09-21T07:01:16.600Z,101315.09
2022-09-21T07:04:20.905Z,101309.34
2022-09-21T07:07:26.749Z,101316.81
2022-09-21T07:10:32.349Z,101325.22
2022-09-21T07:13:35.459Z,101327.50
2022-09-21T07:16:37.450Z,101317.97
2022-09-21T07:19:39.492Z,101321.50
2022-09-21T07:22:41.162Z,101330.84
2022-09-21T07:25:45.417Z,101327.50
2022-09-21T07:28:47.046Z,101326.34
2022-09-21T07:31:48.720Z,101324.81
2022-09-21T07:34:52.732Z,101326.63
2022-09-21T07:37:56.466Z,101324.41
2022-09-21T07:41:02.660Z,101323.47
2022-09-21T07:44:04.557Z,101327.19
2022-09-21T07:47:06.481Z,101328.81
2022-09-21T07:50:08.863Z,101328.50
2022-09-21T07:53:10.553Z,101334.25
2022-09-21T07:56:16.130Z,101328.03
2022-09-21T07:59:20.803Z,101322.47
2022-09-21T08:02:22.476Z,101318.63
2022-09-21T08:05:24.348Z,101318.41
2022-09-21T08:08:25.977Z,101320.34
2022-09-21T08:11:30.291Z,101316.69
2022-09-21T08:14:32.062Z,101322.50
2022-09-21T08:17:36.073Z,101318.78
2022-09-21T08:20:38.018Z,101321.28
2022-09-21T08:23:43.034Z,101310.09
2022-09-21T08:26:46.468Z,101316.25
2022-09-21T08:29:48.309Z,101314.28
2022-09-21T08:32:51.830Z,101312.66
2022-09-21T08:35:54.020Z,101313.75
2022-09-21T08:38:56.864Z,101309.81
2022-09-21T08:42:12.277Z,101311.16
2022-09-21T08:45:20.654Z,101310.16
2022-09-21T08:48:29.979Z,101316.28
2022-09-21T08:51:37.494Z,101311.69
2022-09-21T08:54:43.805Z,101301.50
2022-09-21T08:57:46.921Z,101302.16
2022-09-21T09:00:52.443Z,101298.41
2022-09-21T09:04:11.532Z,101303.56
2022-09-21T09:07:31.812Z,101293.94
2022-09-21T09:10:38.617Z,101296.88
2022-09-21T09:14:17.892Z,101291.59
2022-09-21T09:17:33.230Z,101294.06
2022-09-21T09:20:38.089Z,101288.97
2022-09-21T09:23:47.578Z,101292.97
2022-09-21T09:26:53.293Z,101290.94
2022-09-21T09:30:03.595Z,101277.69
2022-09-21T09:33:08.144Z,101279.38
2022-09-21T09:39:30.703Z,101282.13
2022-09-21T09:42:46.319Z,101276.03
2022-09-21T09:45:59.410Z,101273.06
2022-09-21T09:49:14.557Z,101265.34
2022-09-21T09:52:16.745Z,101268.88
2022-09-21T09:55:22.161Z,101258.94
2022-09-21T09:58:29.602Z,101266.47
2022-09-21T10:01:42.677Z,101263.88
2022-09-21T10:04:55.298Z,101246.25
2022-09-21T10:07:57.265Z,101256.69
2022-09-21T10:10:58.987Z,101245.13
2022-09-21T10:14:07.756Z,101248.94
2022-09-21T10:17:17.772Z,101246.91
2022-09-21T10:20:20.270Z,101242.97
2022-09-21T10:23:22.818Z,101244.84
2022-09-21T10:26:30.886Z,101244.66
2022-09-21T10:29:40.187Z,101234.81
2022-09-21T10:32:55.505Z,101236.06
2022-09-21T10:35:57.629Z,101236.31
2022-09-21T10:39:27.813Z,101244.03
2022-09-21T10:42:33.965Z,101247.59
2022-09-21T10:45:37.217Z,101241.53
2022-09-21T10:48:44.692Z,101239.88
2022-09-21T10:51:49.319Z,101227.31
2022-09-21T10:54:54.402Z,101226.09
2022-09-21T10:57:57.039Z,101217.16
2022-09-21T11:01:11.542Z,101228.75
2022-09-21T11:04:20.205Z,101221.06
2022-09-21T11:07:27.831Z,101225.94
2022-09-21T11:10:38.348Z,101220.75
2022-09-21T11:13:48.962Z,101212.19
2022-09-21T11:16:55.551Z,101218.88
2022-09-21T11:20:18.434Z,101210.97
2022-09-21T11:23:41.420Z,101208.56
2022-09-21T11:26:52.261Z,101210.91
2022-09-21T11:30:01.744Z,101206.47
2022-09-21T11:33:15.856Z,101209.25
2022-09-21T11:36:29.757Z,101207.72
2022-09-21T11:39:43.016Z,101201.84
2022-09-21T11:42:54.016Z,101198.22
2022-09-21T11:46:06.780Z,101192.91
2022-09-21T11:49:27.688Z,101195.25
2022-09-21T11:52:43.000Z,101190.50
2022-09-21T11:56:12.444Z,101189.69
2022-09-21T11:59:29.851Z,101190.19
2022-09-21T12:02:59.389Z,101184.41
2022-09-21T12:06:16.185Z,101187.94
2022-09-21T12:09:35.331Z,101179.53
2022-09-21T12:12:43.482Z,101172.94
2022-09-21T12:15:51.692Z,101171.50
2022-09-21T12:18:59.297Z,101169.56
2022-09-21T12:22:06.630Z,101168.97
2022-09-21T12:25:17.178Z,101169.53
2022-09-21T12:28:22.462Z,101174.31
2022-09-21T12:31:31.507Z,101164.56
2022-09-21T12:34:40.108Z,101158.53
2022-09-21T12:37:47.533Z,101162.75
2022-09-21T12:40:55.549Z,101156.53
2022-09-21T12:44:02.552Z,101159.69
2022-09-21T12:47:10.655Z,101155.94
2022-09-21T12:50:20.986Z,101147.78
2022-09-21T12:53:26.119Z,101161.22
2022-09-21T12:56:40.651Z,101155.47
2022-09-21T12:59:52.876Z,101159.81
2022-09-21T13:02:59.388Z,101153.50
2022-09-21T13:09:42.167Z,101142.81
2022-09-21T13:12:47.795Z,101152.88
2022-09-21T13:15:51.076Z,101148.25
2022-09-21T13:18:56.631Z,101135.63
2022-09-21T13:22:15.983Z,101139.13
2022-09-21T13:25:23.847Z,101134.00
2022-09-21T13:28:41.600Z,101136.75
2022-09-21T13:31:57.496Z,101131.09
2022-09-21T13:35:51.676Z,101131.94
2022-09-21T13:39:17.192Z,101122.81
2022-09-21T13:42:45.050Z,101121.03
2022-09-21T13:45:56.951Z,101114.75
2022-09-21T13:49:00.201Z,101121.06
2022-09-21T13:52:05.010Z,101113.63
2022-09-21T13:55:22.406Z,101113.41
2022-09-21T13:58:26.999Z,101120.91
2022-09-21T14:01:51.257Z,101107.09
2022-09-21T14:04:53.344Z,101109.88
2022-09-21T14:07:57.411Z,101105.41
2022-09-21T14:11:03.241Z,101104.81
2022-09-21T14:14:18.311Z,101106.13
2022-09-21T14:17:38.276Z,101096.59
2022-09-21T14:20:40.112Z,101104.00
2022-09-21T14:23:41.767Z,101101.13
2022-09-21T14:26:52.787Z,101098.56
2022-09-21T14:30:07.658Z,101093.34
2022-09-21T14:33:22.790Z,101096.25
2022-09-21T14:36:31.311Z,101097.75
2022-09-21T14:39:37.411Z,101093.94
2022-09-21T14:42:39.699Z,101093.34
2022-09-21T14:45:55.894Z,101100.19
2022-09-21T14:49:14.108Z,101094.97
2022-09-21T14:52:32.304Z,101090.13
2022-09-21T14:55:49.940Z,101079.16
2022-09-21T14:59:07.573Z,101076.34
2022-09-21T15:02:19.928Z,101072.28
2022-09-21T15:05:31.206Z,101073.72
2022-09-21T15:09:10.059Z,101075.59
2022-09-21T15:12:19.680Z,101063.06
2022-09-21T15:15:34.320Z,101069.63
2022-09-21T15:18:41.643Z,101061.22
2022-09-21T15:21:46.221Z,101071.13
2022-09-21T15:24:53.289Z,101064.69
2022-09-21T15:27:55.444Z,101070.88
2022-09-21T15:30:58.005Z,101064.16
2022-09-21T15:34:00.296Z,101069.72
2022-09-21T15:37:17.110Z,101064.84
2022-09-21T15:40:21.616Z,101056.50
2022-09-21T15:43:23.380Z,101056.19
2022-09-21T15:46:25.346Z,101056.97
2022-09-21T15:49:29.582Z,101052.75
2022-09-21T15:52:38.461Z,101050.63
2022-09-21T15:55:41.083Z,101056.13
2022-09-21T15:58:45.678Z,101052.06
2022-09-21T16:01:50.611Z,101057.38
2022-09-21T16:04:52.953Z,101054.44
2022-09-21T16:08:09.976Z,101057.50
2022-09-21T16:11:15.829Z,101061.16
2022-09-21T16:14:37.172Z,101064.78
2022-09-21T16:17:38.956Z,101062.44
2022-09-21T16:20:43.569Z,101065.84
2022-09-21T16:23:48.002Z,101066.44
2022-09-21T16:26:57.428Z,101064.53
2022-09-21T16:30:01.050Z,101077.34
2022-09-21T16:33:04.635Z,101078.78
2022-09-21T16:36:39.277Z,101074.81
2022-09-21T16:39:42.473Z,101076.69
2022-09-21T16:42:44.660Z,101073.47
2022-09-21T16:45:47.210Z,101072.13
2022-09-21T16:48:49.963Z,101076.03
2022-09-21T16:51:52.574Z,101072.63
2022-09-21T16:54:59.215Z,101078.84
2022-09-21T16:58:00.949Z,101083.25
2022-09-21T17:01:02.758Z,101086.69
2022-09-21T17:04:05.314Z,101084.44
2022-09-21T17:07:07.353Z,101086.19
2022-09-21T17:10:15.934Z,101079.66
2022-09-21T17:13:20.464Z,101087.72
2022-09-21T17:16:22.528Z,101092.50
2022-09-21T17:19:27.150Z,101088.59
2022-09-21T17:22:28.994Z,101090.47
2022-09-21T17:25:35.486Z,101090.88
2022-09-21T17:28:37.318Z,101091.81
2022-09-21T17:31:38.942Z,101098.06
2022-09-21T17:34:42.105Z,101091.09
2022-09-21T17:37:43.753Z,101091.72
2022-09-21T17:40:47.236Z,101090.78
2022-09-21T17:43:57.827Z,101090.84
2022-09-21T17:47:05.602Z,101096.03
2022-09-21T17:50:19.531Z,101092.25
2022-09-21T17:53:34.422Z,101095.75
2022-09-21T17:56:46.959Z,101098.94
2022-09-21T17:59:55.035Z,101096.09
2022-09-21T18:02:58.048Z,101104.47
2022-09-21T18:06:00.717Z,101099.63
2022-09-21T18:09:03.711Z,101108.03
2022-09-21T18:12:45.172Z,101099.69
2022-09-21T18:16:03.665Z,101099.56
2022-09-21T18:19:30.949Z,101110.88
2022-09-21T18:22:48.875Z,101114.56
2022-09-21T18:25:55.028Z,101111.09
2022-09-21T18:28:58.348Z,101112.63
2022-09-21T18:32:39.607Z,101112.88
2022-09-21T18:35:59.392Z,101120.66
2022-09-21T18:39:17.026Z,101120.66
2022-09-21T18:42:29.296Z,101122.47
2022-09-21T18:45:36.152Z,101126.69
2022-09-21T18:48:54.817Z,101124.09
2022-09-21T18:52:05.029Z,101120.75
2022-09-21T18:55:23.096Z,101121.06
2022-09-21T18:58:25.419Z,101128.50
2022-09-21T19:01:29.817Z,101131.28
2022-09-21T19:04:33.785Z,101125.25
2022-09-21T19:07:40.861Z,101124.66
2022-09-21T19:10:48.141Z,101137.66
2022-09-21T19:13:59.108Z,101147.38
2022-09-21T19:17:12.206Z,101141.16
2022-09-21T19:20:29.950Z,101142.09
2022-09-21T19:23:42.471Z,101143.19
2022-09-21T19:26:50.947Z,101149.06
2022-09-21T19:30:01.310Z,101142.78
2022-09-21T19:33:32.406Z,101138.25
2022-09-21T19:36:41.661Z,101140.06
2022-09-21T19:39:44.137Z,101145.78
2022-09-21T19:42:59.360Z,101141.72
2022-09-21T19:46:11.921Z,101139.75
2022-09-21T19:49:19.006Z,101139.88
2022-09-21T19:52:29.750Z,101140.88
2022-09-21T19:55:51.195Z,101132.47
2022-09-21T19:59:12.628Z,101132.47
2022-09-21T20:02:19.622Z,101133.00
2022-09-21T20:05:28.194Z,101129.16
2022-09-21T20:08:37.724Z,101131.56
2022-09-21T20:11:47.365Z,101130.81
2022-09-21T20:14:54.617Z,101118.16
2022-09-21T20:18:02.991Z,101120.47
2022-09-21T20:21:14.756Z,101127.22
2022-09-21T20:24:24.682Z,101126.59
2022-09-21T20:27:35.041Z,101133.41
2022-09-21T20:30:39.758Z,101117.81
2022-09-21T20:33:41.526Z,101123.56
2022-09-21T20:36:43.173Z,101126.59
2022-09-21T20:39:46.520Z,101130.78
2022-09-21T20:42:48.177Z,101124.28
2022-09-21T20:45:50.321Z,101130.25
2022-09-21T20:49:04.713Z,101134.22
2022-09-21T20:52:06.478Z,101127.63
2022-09-21T20:55:12.328Z,101127.03
2022-09-21T20:58:13.961Z,101126.09
2022-09-21T21:01:15.688Z,101124.84
2022-09-21T21:04:17.441Z,101126.84
2022-09-21T21:07:19.128Z,101118.72
2022-09-21T21:10:22.193Z,101118.13
2022-09-21T21:13:23.872Z,101122.34
2022-09-21T21:16:26.435Z,101118.66
2022-09-21T21:19:28.098Z,101126.88
2022-09-21T21:22:29.762Z,101122.34
2022-09-21T21:25:32.751Z,101117.97
2022-09-21T21:28:34.376Z,101118.94
2022-09-21T21:31:36.188Z,101123.91
2022-09-21T21:34:38.296Z,101114.00
2022-09-21T21:37:40.330Z,101117.69
2022-09-21T21:40:43.451Z,101110.75
2022-09-21T21:43:45.263Z,101105.13
2022-09-21T21:46:46.973Z,101107.34
2022-09-21T21:49:48.630Z,101110.75
2022-09-21T21:52:50.256Z,101101.72
2022-09-21T21:56:01.589Z,101107.81
2022-09-21T21:59:04.119Z,101109.09
2022-09-21T22:02:05.970Z,101102.41
2022-09-21T22:05:08.426Z,101096.84
2022-09-21T22:08:10.068Z,101096.97
2022-09-21T22:11:13.154Z,101105.19
2022-09-21T22:14:14.979Z,101102.47
2022-09-21T22:17:16.601Z,101105.25
2022-09-21T22:20:18.276Z,101110.03
2022-09-21T22:23:20.020Z,101102.81
2022-09-21T22:26:24.058Z,101097.38
2022-09-21T22:29:25.760Z,101099.84
2022-09-21T22:32:27.399Z,101094.91
2022-09-21T22:35:29.066Z,101100.81
2022-09-21T22:38:31.797Z,101097.22
2022-09-21T22:41:36.870Z,101097.06
2022-09-21T22:44:38.484Z,101095.66
2022-09-21T22:47:41.597Z,101098.75
2022-09-21T22:50:43.411Z,101098.78
2022-09-21T22:53:46.038Z,101096.16
2022-09-21T22:56:49.112Z,101097.53
2022-09-21T22:59:50.812Z,101096.91
2022-09-21T23:02:56.101Z,101096.91
2022-09-21T23:05:57.965Z,101095.47
2022-09-21T23:09:02.003Z,101088.53
2022-09-21T23:12:05.498Z,101081.38
2022-09-21T23:15:08.476Z,101086.19
2022-09-21T23:18:10.161Z,101085.47
2022-09-21T23:21:14.155Z,101086.22
2022-09-21T23:24:16.063Z,101086.34
2022-09-21T23:27:19.032Z,101075.81
2022-09-21T23:30:20.860Z,101079.84
2022-09-21T23:33:22.536Z,101077.69
2022-09-21T23:36:26.617Z,101077.56
2022-09-21T23:39:28.256Z,101069.50
2022-09-21T23:42:31.196Z,101078.16
2022-09-21T23:45:32.806Z,101070.59
2022-09-21T23:48:34.949Z,101073.53
2022-09-21T23:51:37.119Z,101066.81
2022-09-21T23:54:39.171Z,101062.00
2022-09-21T23:57:42.122Z,101066.84
